Terminal Aerodrome Forecast
Issued by NWS Duluth, MN

Home | Current Version | Previous Version | Text Only | Print | Product List | Glossary On
Versions: 1 2 3 4 5 6 7 8 9 10 11 12 13 14 15 16 17 18
000
FTUS43 KDLH 210800 AAA
TAFINL
TAF AMD
KINL 210841Z 2109/2206 22006KT P6SM SCT140
     FM211000 31010G20KT P6SM BKN060
      TEMPO 2111/2112 5SM -SHRA
     FM211300 33016G23KT P6SM BKN040=

USA.gov is the U.S. government's official web portal to all federal, state and local government web resources and services.